sensor_id;sensor_type;location;lat;lon;timestamp;P1;durP1;ratioP1;P2;durP2;ratioP2
7375;SDS011;3728;42.266;24.944;2023-09-07T00:01:45;18.48;;;10.80;;
7375;SDS011;3728;42.266;24.944;2023-09-07T00:04:12;11.50;;;10.18;;
7375;SDS011;3728;42.266;24.944;2023-09-07T00:06:40;13.13;;;11.23;;
7375;SDS011;3728;42.266;24.944;2023-09-07T00:09:10;12.52;;;11.20;;
7375;SDS011;3728;42.266;24.944;2023-09-07T00:11:38;10.95;;;9.70;;
7375;SDS011;3728;42.266;24.944;2023-09-07T00:14:05;12.98;;;11.40;;
7375;SDS011;3728;42.266;24.944;2023-09-07T00:16:34;15.52;;;11.60;;
7375;SDS011;3728;42.266;24.944;2023-09-07T00:19:02;14.80;;;11.35;;
7375;SDS011;3728;42.266;24.944;2023-09-07T00:21:29;13.95;;;11.68;;
7375;SDS011;3728;42.266;24.944;2023-09-07T00:23:57;14.57;;;11.73;;
7375;SDS011;3728;42.266;24.944;2023-09-07T00:26:24;14.65;;;12.27;;
7375;SDS011;3728;42.266;24.944;2023-09-07T00:28:51;13.85;;;12.30;;
7375;SDS011;3728;42.266;24.944;2023-09-07T00:31:19;14.45;;;11.88;;
7375;SDS011;3728;42.266;24.944;2023-09-07T00:33:47;16.15;;;12.40;;
7375;SDS011;3728;42.266;24.944;2023-09-07T00:36:14;14.52;;;11.80;;
7375;SDS011;3728;42.266;24.944;2023-09-07T00:38:41;12.43;;;11.23;;
7375;SDS011;3728;42.266;24.944;2023-09-07T00:41:08;14.40;;;12.52;;
7375;SDS011;3728;42.266;24.944;2023-09-07T00:43:36;14.45;;;11.35;;
7375;SDS011;3728;42.266;24.944;2023-09-07T00:46:04;13.20;;;11.30;;
7375;SDS011;3728;42.266;24.944;2023-09-07T00:48:32;12.85;;;11.55;;
7375;SDS011;3728;42.266;24.944;2023-09-07T00:51:00;14.32;;;11.43;;
7375;SDS011;3728;42.266;24.944;2023-09-07T00:53:27;11.73;;;10.50;;
7375;SDS011;3728;42.266;24.944;2023-09-07T00:55:55;13.15;;;11.00;;
7375;SDS011;3728;42.266;24.944;2023-09-07T00:58:23;13.07;;;11.70;;
7375;SDS011;3728;42.266;24.944;2023-09-07T01:00:52;12.95;;;11.10;;
7375;SDS011;3728;42.266;24.944;2023-09-07T01:03:21;12.45;;;11.00;;
7375;SDS011;3728;42.266;24.944;2023-09-07T01:05:53;13.57;;;11.20;;
7375;SDS011;3728;42.266;24.944;2023-09-07T01:08:29;12.75;;;11.27;;
7375;SDS011;3728;42.266;24.944;2023-09-07T01:11:19;13.90;;;11.73;;
7375;SDS011;3728;42.266;24.944;2023-09-07T01:13:50;14.85;;;11.82;;
7375;SDS011;3728;42.266;24.944;2023-09-07T01:16:22;14.23;;;11.98;;
7375;SDS011;3728;42.266;24.944;2023-09-07T01:18:51;14.52;;;10.85;;
7375;SDS011;3728;42.266;24.944;2023-09-07T01:21:19;13.25;;;11.65;;
7375;SDS011;3728;42.266;24.944;2023-09-07T01:23:46;15.95;;;11.70;;
7375;SDS011;3728;42.266;24.944;2023-09-07T01:26:15;13.73;;;11.75;;
7375;SDS011;3728;42.266;24.944;2023-09-07T01:28:42;12.45;;;11.15;;
7375;SDS011;3728;42.266;24.944;2023-09-07T01:31:10;14.75;;;12.02;;
7375;SDS011;3728;42.266;24.944;2023-09-07T01:33:38;15.48;;;12.20;;
7375;SDS011;3728;42.266;24.944;2023-09-07T01:36:05;14.00;;;11.38;;
7375;SDS011;3728;42.266;24.944;2023-09-07T01:38:33;13.52;;;11.45;;
7375;SDS011;3728;42.266;24.944;2023-09-07T01:41:00;13.00;;;11.30;;
7375;SDS011;3728;42.266;24.944;2023-09-07T01:43:27;13.93;;;10.95;;
7375;SDS011;3728;42.266;24.944;2023-09-07T01:45:55;12.48;;;11.20;;
7375;SDS011;3728;42.266;24.944;2023-09-07T01:48:23;16.70;;;12.13;;
7375;SDS011;3728;42.266;24.944;2023-09-07T01:50:53;14.93;;;11.10;;
7375;SDS011;3728;42.266;24.944;2023-09-07T01:53:21;18.27;;;11.57;;
7375;SDS011;3728;42.266;24.944;2023-09-07T01:55:49;12.88;;;11.07;;
7375;SDS011;3728;42.266;24.944;2023-09-07T01:58:20;13.48;;;11.52;;
7375;SDS011;3728;42.266;24.944;2023-09-07T02:00:47;11.55;;;10.25;;
7375;SDS011;3728;42.266;24.944;2023-09-07T02:03:14;14.27;;;10.88;;
7375;SDS011;3728;42.266;24.944;2023-09-07T02:05:43;12.25;;;10.88;;
7375;SDS011;3728;42.266;24.944;2023-09-07T02:08:12;12.50;;;10.88;;
7375;SDS011;3728;42.266;24.944;2023-09-07T02:10:40;11.40;;;10.20;;
7375;SDS011;3728;42.266;24.944;2023-09-07T02:13:07;14.85;;;10.30;;
7375;SDS011;3728;42.266;24.944;2023-09-07T02:15:39;12.55;;;10.15;;
7375;SDS011;3728;42.266;24.944;2023-09-07T02:18:06;12.93;;;9.75;;
7375;SDS011;3728;42.266;24.944;2023-09-07T02:20:34;12.10;;;10.50;;
7375;SDS011;3728;42.266;24.944;2023-09-07T02:23:01;11.32;;;9.27;;
7375;SDS011;3728;42.266;24.944;2023-09-07T02:25:29;13.73;;;9.20;;
7375;SDS011;3728;42.266;24.944;2023-09-07T02:27:57;13.57;;;9.80;;
7375;SDS011;3728;42.266;24.944;2023-09-07T02:30:24;12.93;;;9.05;;
7375;SDS011;3728;42.266;24.944;2023-09-07T02:32:52;12.15;;;9.48;;
7375;SDS011;3728;42.266;24.944;2023-09-07T02:35:20;10.50;;;9.45;;
7375;SDS011;3728;42.266;24.944;2023-09-07T02:37:47;14.00;;;9.87;;
7375;SDS011;3728;42.266;24.944;2023-09-07T02:40:14;14.47;;;9.63;;
7375;SDS011;3728;42.266;24.944;2023-09-07T02:42:42;13.65;;;9.40;;
7375;SDS011;3728;42.266;24.944;2023-09-07T02:45:14;11.35;;;9.23;;
7375;SDS011;3728;42.266;24.944;2023-09-07T02:47:41;15.40;;;9.10;;
7375;SDS011;3728;42.266;24.944;2023-09-07T02:50:09;17.08;;;9.88;;
7375;SDS011;3728;42.266;24.944;2023-09-07T02:52:36;13.75;;;9.13;;
7375;SDS011;3728;42.266;24.944;2023-09-07T02:55:04;11.68;;;10.00;;
7375;SDS011;3728;42.266;24.944;2023-09-07T02:57:34;13.10;;;9.95;;
7375;SDS011;3728;42.266;24.944;2023-09-07T03:00:02;10.02;;;8.95;;
7375;SDS011;3728;42.266;24.944;2023-09-07T03:02:36;12.27;;;9.43;;
7375;SDS011;3728;42.266;24.944;2023-09-07T03:05:04;12.43;;;10.00;;
7375;SDS011;3728;42.266;24.944;2023-09-07T03:07:33;14.73;;;9.68;;
7375;SDS011;3728;42.266;24.944;2023-09-07T03:10:00;12.00;;;8.82;;
7375;SDS011;3728;42.266;24.944;2023-09-07T03:12:28;10.33;;;8.97;;
7375;SDS011;3728;42.266;24.944;2023-09-07T03:14:55;11.63;;;9.40;;
7375;SDS011;3728;42.266;24.944;2023-09-07T03:17:22;11.15;;;9.43;;
7375;SDS011;3728;42.266;24.944;2023-09-07T03:19:50;11.20;;;9.52;;
7375;SDS011;3728;42.266;24.944;2023-09-07T03:22:19;11.67;;;9.60;;
7375;SDS011;3728;42.266;24.944;2023-09-07T03:24:46;11.45;;;9.50;;
7375;SDS011;3728;42.266;24.944;2023-09-07T03:27:15;12.50;;;9.32;;
7375;SDS011;3728;42.266;24.944;2023-09-07T03:29:44;12.37;;;9.47;;
7375;SDS011;3728;42.266;24.944;2023-09-07T03:32:12;13.43;;;9.70;;
7375;SDS011;3728;42.266;24.944;2023-09-07T03:34:39;10.70;;;9.60;;
7375;SDS011;3728;42.266;24.944;2023-09-07T03:37:06;11.23;;;9.43;;
7375;SDS011;3728;42.266;24.944;2023-09-07T03:39:38;14.43;;;9.40;;
7375;SDS011;3728;42.266;24.944;2023-09-07T03:42:05;12.90;;;9.90;;
7375;SDS011;3728;42.266;24.944;2023-09-07T03:44:33;10.80;;;9.33;;
7375;SDS011;3728;42.266;24.944;2023-09-07T03:47:00;13.75;;;10.15;;
7375;SDS011;3728;42.266;24.944;2023-09-07T03:49:28;14.87;;;9.53;;
7375;SDS011;3728;42.266;24.944;2023-09-07T03:51:55;11.10;;;9.15;;
7375;SDS011;3728;42.266;24.944;2023-09-07T03:54:23;13.23;;;10.07;;
7375;SDS011;3728;42.266;24.944;2023-09-07T03:56:50;11.98;;;9.43;;
7375;SDS011;3728;42.266;24.944;2023-09-07T03:59:17;13.07;;;9.60;;
7375;SDS011;3728;42.266;24.944;2023-09-07T04:01:45;10.93;;;9.40;;
7375;SDS011;3728;42.266;24.944;2023-09-07T04:04:12;12.30;;;9.20;;
7375;SDS011;3728;42.266;24.944;2023-09-07T04:06:40;10.40;;;8.97;;
7375;SDS011;3728;42.266;24.944;2023-09-07T04:09:07;13.00;;;9.70;;
7375;SDS011;3728;42.266;24.944;2023-09-07T04:11:34;10.02;;;9.02;;
7375;SDS011;3728;42.266;24.944;2023-09-07T04:14:01;14.68;;;10.05;;
7375;SDS011;3728;42.266;24.944;2023-09-07T04:16:29;15.27;;;9.60;;
7375;SDS011;3728;42.266;24.944;2023-09-07T04:18:56;14.87;;;9.53;;
7375;SDS011;3728;42.266;24.944;2023-09-07T04:21:23;11.27;;;10.07;;
7375;SDS011;3728;42.266;24.944;2023-09-07T04:23:51;13.93;;;9.88;;
7375;SDS011;3728;42.266;24.944;2023-09-07T04:26:18;11.93;;;9.38;;
7375;SDS011;3728;42.266;24.944;2023-09-07T04:28:46;17.05;;;10.15;;
7375;SDS011;3728;42.266;24.944;2023-09-07T04:31:13;14.73;;;9.93;;
7375;SDS011;3728;42.266;24.944;2023-09-07T04:33:40;17.83;;;9.25;;
7375;SDS011;3728;42.266;24.944;2023-09-07T04:36:11;12.70;;;9.60;;
7375;SDS011;3728;42.266;24.944;2023-09-07T04:38:44;13.02;;;9.68;;
7375;SDS011;3728;42.266;24.944;2023-09-07T04:41:13;13.65;;;10.02;;
7375;SDS011;3728;42.266;24.944;2023-09-07T04:43:43;13.23;;;9.23;;
7375;SDS011;3728;42.266;24.944;2023-09-07T04:46:10;18.10;;;10.30;;
7375;SDS011;3728;42.266;24.944;2023-09-07T04:48:40;13.47;;;10.10;;
7375;SDS011;3728;42.266;24.944;2023-09-07T04:51:08;13.57;;;9.15;;
7375;SDS011;3728;42.266;24.944;2023-09-07T04:53:39;16.52;;;10.82;;
7375;SDS011;3728;42.266;24.944;2023-09-07T04:56:07;12.40;;;10.10;;
7375;SDS011;3728;42.266;24.944;2023-09-07T04:58:36;14.98;;;9.25;;
7375;SDS011;3728;42.266;24.944;2023-09-07T05:01:04;17.45;;;9.13;;
7375;SDS011;3728;42.266;24.944;2023-09-07T05:03:33;15.10;;;9.57;;
7375;SDS011;3728;42.266;24.944;2023-09-07T05:06:00;16.83;;;10.35;;
7375;SDS011;3728;42.266;24.944;2023-09-07T05:08:30;14.70;;;9.95;;
7375;SDS011;3728;42.266;24.944;2023-09-07T05:10:59;15.32;;;10.15;;
7375;SDS011;3728;42.266;24.944;2023-09-07T05:13:29;12.75;;;9.40;;
7375;SDS011;3728;42.266;24.944;2023-09-07T05:15:59;15.65;;;9.88;;
7375;SDS011;3728;42.266;24.944;2023-09-07T05:18:34;13.57;;;9.68;;
7375;SDS011;3728;42.266;24.944;2023-09-07T05:21:10;16.10;;;10.18;;
7375;SDS011;3728;42.266;24.944;2023-09-07T05:23:40;12.13;;;9.95;;
7375;SDS011;3728;42.266;24.944;2023-09-07T05:26:09;15.35;;;10.43;;
7375;SDS011;3728;42.266;24.944;2023-09-07T05:28:37;13.68;;;9.98;;
7375;SDS011;3728;42.266;24.944;2023-09-07T05:31:07;14.30;;;10.23;;
7375;SDS011;3728;42.266;24.944;2023-09-07T05:33:35;12.15;;;10.50;;
7375;SDS011;3728;42.266;24.944;2023-09-07T05:36:02;13.13;;;9.82;;
7375;SDS011;3728;42.266;24.944;2023-09-07T05:38:30;14.57;;;10.70;;
7375;SDS011;3728;42.266;24.944;2023-09-07T05:41:00;13.63;;;10.57;;
7375;SDS011;3728;42.266;24.944;2023-09-07T05:43:27;14.20;;;10.82;;
7375;SDS011;3728;42.266;24.944;2023-09-07T05:45:55;12.13;;;10.00;;
7375;SDS011;3728;42.266;24.944;2023-09-07T05:48:22;10.70;;;9.60;;
7375;SDS011;3728;42.266;24.944;2023-09-07T05:50:50;10.68;;;9.52;;
7375;SDS011;3728;42.266;24.944;2023-09-07T05:53:20;11.63;;;9.35;;
7375;SDS011;3728;42.266;24.944;2023-09-07T05:55:48;11.48;;;9.65;;
7375;SDS011;3728;42.266;24.944;2023-09-07T05:58:16;14.00;;;9.80;;
7375;SDS011;3728;42.266;24.944;2023-09-07T06:00:43;13.70;;;9.35;;
7375;SDS011;3728;42.266;24.944;2023-09-07T06:03:11;12.65;;;8.73;;
7375;SDS011;3728;42.266;24.944;2023-09-07T06:05:39;12.48;;;7.53;;
7375;SDS011;3728;42.266;24.944;2023-09-07T06:08:08;8.32;;;7.22;;
7375;SDS011;3728;42.266;24.944;2023-09-07T06:10:36;7.32;;;6.63;;
7375;SDS011;3728;42.266;24.944;2023-09-07T06:13:07;11.10;;;6.90;;
7375;SDS011;3728;42.266;24.944;2023-09-07T06:15:34;8.25;;;6.07;;
7375;SDS011;3728;42.266;24.944;2023-09-07T06:18:03;10.18;;;5.72;;
7375;SDS011;3728;42.266;24.944;2023-09-07T06:20:31;7.43;;;5.63;;
7375;SDS011;3728;42.266;24.944;2023-09-07T06:23:02;7.38;;;5.72;;
7375;SDS011;3728;42.266;24.944;2023-09-07T06:25:30;7.47;;;5.65;;
7375;SDS011;3728;42.266;24.944;2023-09-07T06:28:00;7.32;;;6.18;;
7375;SDS011;3728;42.266;24.944;2023-09-07T06:30:27;10.05;;;5.85;;
7375;SDS011;3728;42.266;24.944;2023-09-07T06:32:55;5.82;;;5.32;;
7375;SDS011;3728;42.266;24.944;2023-09-07T06:35:25;8.35;;;5.40;;
7375;SDS011;3728;42.266;24.944;2023-09-07T06:37:53;8.85;;;5.82;;
7375;SDS011;3728;42.266;24.944;2023-09-07T06:40:23;6.68;;;5.55;;
7375;SDS011;3728;42.266;24.944;2023-09-07T06:42:55;10.43;;;5.90;;
7375;SDS011;3728;42.266;24.944;2023-09-07T06:45:25;6.57;;;5.75;;
7375;SDS011;3728;42.266;24.944;2023-09-07T06:47:52;6.18;;;5.15;;
7375;SDS011;3728;42.266;24.944;2023-09-07T06:50:22;7.22;;;5.30;;
7375;SDS011;3728;42.266;24.944;2023-09-07T06:52:50;9.63;;;4.93;;
7375;SDS011;3728;42.266;24.944;2023-09-07T06:55:20;6.13;;;5.25;;
7375;SDS011;3728;42.266;24.944;2023-09-07T06:57:47;6.95;;;5.25;;
7375;SDS011;3728;42.266;24.944;2023-09-07T07:00:16;5.60;;;5.07;;
7375;SDS011;3728;42.266;24.944;2023-09-07T07:02:43;7.63;;;5.30;;
7375;SDS011;3728;42.266;24.944;2023-09-07T07:05:11;8.80;;;5.50;;
7375;SDS011;3728;42.266;24.944;2023-09-07T07:07:39;8.38;;;5.30;;
7375;SDS011;3728;42.266;24.944;2023-09-07T07:10:07;6.00;;;5.43;;
7375;SDS011;3728;42.266;24.944;2023-09-07T07:12:38;6.32;;;4.82;;
7375;SDS011;3728;42.266;24.944;2023-09-07T07:15:06;6.50;;;4.70;;
7375;SDS011;3728;42.266;24.944;2023-09-07T07:17:35;6.80;;;4.78;;
7375;SDS011;3728;42.266;24.944;2023-09-07T07:20:03;8.57;;;4.68;;
7375;SDS011;3728;42.266;24.944;2023-09-07T07:22:31;5.97;;;4.72;;
7375;SDS011;3728;42.266;24.944;2023-09-07T07:25:02;7.47;;;4.72;;
7375;SDS011;3728;42.266;24.944;2023-09-07T07:27:32;9.52;;;4.78;;
7375;SDS011;3728;42.266;24.944;2023-09-07T07:30:00;6.13;;;4.20;;
7375;SDS011;3728;42.266;24.944;2023-09-07T07:32:28;5.65;;;3.88;;
7375;SDS011;3728;42.266;24.944;2023-09-07T07:34:55;6.95;;;3.95;;
7375;SDS011;3728;42.266;24.944;2023-09-07T07:37:23;41.55;;;19.90;;
7375;SDS011;3728;42.266;24.944;2023-09-07T07:39:51;28.70;;;12.63;;
7375;SDS011;3728;42.266;24.944;2023-09-07T07:42:18;8.10;;;4.00;;
7375;SDS011;3728;42.266;24.944;2023-09-07T07:44:46;7.60;;;4.82;;
7375;SDS011;3728;42.266;24.944;2023-09-07T07:47:13;5.35;;;4.03;;
7375;SDS011;3728;42.266;24.944;2023-09-07T07:49:41;7.10;;;3.58;;
7375;SDS011;3728;42.266;24.944;2023-09-07T07:52:08;6.03;;;4.30;;
7375;SDS011;3728;42.266;24.944;2023-09-07T07:54:35;5.55;;;3.42;;
7375;SDS011;3728;42.266;24.944;2023-09-07T07:57:04;5.25;;;4.00;;
7375;SDS011;3728;42.266;24.944;2023-09-07T07:59:33;4.38;;;3.42;;
7375;SDS011;3728;42.266;24.944;2023-09-07T08:02:01;13.85;;;12.48;;
7375;SDS011;3728;42.266;24.944;2023-09-07T08:04:29;8.73;;;3.53;;
7375;SDS011;3728;42.266;24.944;2023-09-07T08:07:00;4.78;;;3.00;;
7375;SDS011;3728;42.266;24.944;2023-09-07T08:09:32;5.00;;;3.22;;
7375;SDS011;3728;42.266;24.944;2023-09-07T08:11:59;4.00;;;3.15;;
7375;SDS011;3728;42.266;24.944;2023-09-07T08:14:30;3.95;;;3.13;;
7375;SDS011;3728;42.266;24.944;2023-09-07T08:16:58;4.50;;;3.40;;
7375;SDS011;3728;42.266;24.944;2023-09-07T08:19:26;4.45;;;2.72;;
7375;SDS011;3728;42.266;24.944;2023-09-07T08:21:55;4.32;;;2.78;;
7375;SDS011;3728;42.266;24.944;2023-09-07T08:24:24;3.20;;;2.90;;
7375;SDS011;3728;42.266;24.944;2023-09-07T08:26:52;3.63;;;2.60;;
7375;SDS011;3728;42.266;24.944;2023-09-07T08:29:22;3.42;;;3.13;;
7375;SDS011;3728;42.266;24.944;2023-09-07T08:31:53;4.15;;;2.50;;
7375;SDS011;3728;42.266;24.944;2023-09-07T08:34:24;5.55;;;2.60;;
7375;SDS011;3728;42.266;24.944;2023-09-07T08:36:52;5.10;;;2.90;;
7375;SDS011;3728;42.266;24.944;2023-09-07T08:39:21;5.32;;;2.42;;
7375;SDS011;3728;42.266;24.944;2023-09-07T08:41:49;6.68;;;2.80;;
7375;SDS011;3728;42.266;24.944;2023-09-07T08:44:28;7.65;;;3.50;;
7375;SDS011;3728;42.266;24.944;2023-09-07T08:46:57;11.18;;;4.18;;
7375;SDS011;3728;42.266;24.944;2023-09-07T08:49:31;4.88;;;2.58;;
7375;SDS011;3728;42.266;24.944;2023-09-07T08:52:01;5.07;;;2.95;;
7375;SDS011;3728;42.266;24.944;2023-09-07T08:54:33;6.93;;;3.03;;
7375;SDS011;3728;42.266;24.944;2023-09-07T08:57:03;24.48;;;5.75;;
7375;SDS011;3728;42.266;24.944;2023-09-07T08:59:31;12.70;;;3.70;;
7375;SDS011;3728;42.266;24.944;2023-09-07T09:01:59;7.93;;;3.58;;
7375;SDS011;3728;42.266;24.944;2023-09-07T09:04:27;14.43;;;3.95;;
7375;SDS011;3728;42.266;24.944;2023-09-07T09:06:55;15.40;;;4.32;;
7375;SDS011;3728;42.266;24.944;2023-09-07T09:09:23;10.73;;;4.28;;
7375;SDS011;3728;42.266;24.944;2023-09-07T09:11:51;6.07;;;3.97;;
7375;SDS011;3728;42.266;24.944;2023-09-07T09:14:19;4.43;;;4.03;;
7375;SDS011;3728;42.266;24.944;2023-09-07T09:16:51;12.65;;;3.88;;
7375;SDS011;3728;42.266;24.944;2023-09-07T09:19:19;8.60;;;3.97;;
7375;SDS011;3728;42.266;24.944;2023-09-07T09:22:01;13.93;;;4.15;;
7375;SDS011;3728;42.266;24.944;2023-09-07T09:24:33;4.80;;;3.53;;
7375;SDS011;3728;42.266;24.944;2023-09-07T09:27:04;5.90;;;4.15;;
7375;SDS011;3728;42.266;24.944;2023-09-07T09:29:34;4.72;;;3.83;;
7375;SDS011;3728;42.266;24.944;2023-09-07T09:32:06;15.80;;;4.00;;
7375;SDS011;3728;42.266;24.944;2023-09-07T09:34:37;4.13;;;3.65;;
7375;SDS011;3728;42.266;24.944;2023-09-07T09:37:12;11.18;;;4.60;;
7375;SDS011;3728;42.266;24.944;2023-09-07T09:39:49;5.07;;;3.53;;
7375;SDS011;3728;42.266;24.944;2023-09-07T09:42:17;6.03;;;4.07;;
7375;SDS011;3728;42.266;24.944;2023-09-07T09:44:47;4.18;;;3.75;;
7375;SDS011;3728;42.266;24.944;2023-09-07T09:47:17;9.30;;;4.80;;
7375;SDS011;3728;42.266;24.944;2023-09-07T09:49:45;5.45;;;4.15;;
7375;SDS011;3728;42.266;24.944;2023-09-07T09:52:16;10.55;;;4.50;;
7375;SDS011;3728;42.266;24.944;2023-09-07T09:54:43;16.20;;;5.10;;
7375;SDS011;3728;42.266;24.944;2023-09-07T09:57:12;10.77;;;3.92;;
7375;SDS011;3728;42.266;24.944;2023-09-07T09:59:59;9.88;;;3.95;;
7375;SDS011;3728;42.266;24.944;2023-09-07T10:02:37;15.75;;;5.53;;
7375;SDS011;3728;42.266;24.944;2023-09-07T10:05:08;9.18;;;4.40;;
7375;SDS011;3728;42.266;24.944;2023-09-07T10:07:47;13.90;;;4.40;;
7375;SDS011;3728;42.266;24.944;2023-09-07T10:10:18;9.40;;;4.63;;
7375;SDS011;3728;42.266;24.944;2023-09-07T10:13:07;6.78;;;3.42;;
7375;SDS011;3728;42.266;24.944;2023-09-07T10:15:35;7.32;;;3.55;;
7375;SDS011;3728;42.266;24.944;2023-09-07T10:18:06;4.70;;;4.10;;
7375;SDS011;3728;42.266;24.944;2023-09-07T10:23:38;6.30;;;3.95;;
7375;SDS011;3728;42.266;24.944;2023-09-07T10:26:14;11.18;;;4.07;;
7375;SDS011;3728;42.266;24.944;2023-09-07T10:28:47;6.50;;;3.47;;
7375;SDS011;3728;42.266;24.944;2023-09-07T10:31:30;6.47;;;3.80;;
7375;SDS011;3728;42.266;24.944;2023-09-07T10:34:18;9.27;;;4.00;;
7375;SDS011;3728;42.266;24.944;2023-09-07T10:36:49;6.97;;;3.40;;
7375;SDS011;3728;42.266;24.944;2023-09-07T10:39:23;12.18;;;3.95;;
7375;SDS011;3728;42.266;24.944;2023-09-07T10:41:50;9.93;;;3.08;;
7375;SDS011;3728;42.266;24.944;2023-09-07T10:44:24;4.97;;;3.00;;
7375;SDS011;3728;42.266;24.944;2023-09-07T10:46:54;3.85;;;3.10;;
7375;SDS011;3728;42.266;24.944;2023-09-07T10:49:24;6.05;;;3.13;;
7375;SDS011;3728;42.266;24.944;2023-09-07T10:51:52;3.40;;;2.97;;
7375;SDS011;3728;42.266;24.944;2023-09-07T10:54:23;6.40;;;3.10;;
7375;SDS011;3728;42.266;24.944;2023-09-07T10:56:52;5.32;;;3.00;;
7375;SDS011;3728;42.266;24.944;2023-09-07T10:59:20;10.15;;;3.70;;
7375;SDS011;3728;42.266;24.944;2023-09-07T11:01:48;14.77;;;3.78;;
7375;SDS011;3728;42.266;24.944;2023-09-07T11:04:17;5.03;;;2.70;;
7375;SDS011;3728;42.266;24.944;2023-09-07T11:06:47;4.93;;;2.75;;
7375;SDS011;3728;42.266;24.944;2023-09-07T11:09:16;4.78;;;2.70;;
7375;SDS011;3728;42.266;24.944;2023-09-07T11:11:47;3.67;;;2.80;;
7375;SDS011;3728;42.266;24.944;2023-09-07T11:14:14;6.60;;;3.08;;
7375;SDS011;3728;42.266;24.944;2023-09-07T11:16:42;5.55;;;3.15;;
7375;SDS011;3728;42.266;24.944;2023-09-07T11:19:10;8.07;;;2.80;;
7375;SDS011;3728;42.266;24.944;2023-09-07T11:21:37;4.22;;;2.83;;
7375;SDS011;3728;42.266;24.944;2023-09-07T11:24:07;3.97;;;2.60;;
7375;SDS011;3728;42.266;24.944;2023-09-07T11:26:45;7.57;;;2.55;;
7375;SDS011;3728;42.266;24.944;2023-09-07T11:29:15;4.05;;;2.35;;
7375;SDS011;3728;42.266;24.944;2023-09-07T11:31:47;4.35;;;2.72;;
7375;SDS011;3728;42.266;24.944;2023-09-07T11:34:16;4.57;;;3.00;;
7375;SDS011;3728;42.266;24.944;2023-09-07T11:36:44;2.80;;;2.60;;
7375;SDS011;3728;42.266;24.944;2023-09-07T11:39:11;6.07;;;2.88;;
7375;SDS011;3728;42.266;24.944;2023-09-07T11:41:42;6.28;;;3.08;;
7375;SDS011;3728;42.266;24.944;2023-09-07T11:44:12;8.52;;;3.53;;
7375;SDS011;3728;42.266;24.944;2023-09-07T11:46:39;15.75;;;5.18;;
7375;SDS011;3728;42.266;24.944;2023-09-07T11:49:08;5.20;;;4.00;;
7375;SDS011;3728;42.266;24.944;2023-09-07T11:51:37;14.20;;;4.57;;
7375;SDS011;3728;42.266;24.944;2023-09-07T11:54:08;4.32;;;3.92;;
7375;SDS011;3728;42.266;24.944;2023-09-07T11:56:37;5.35;;;3.97;;
7375;SDS011;3728;42.266;24.944;2023-09-07T11:59:10;8.93;;;3.80;;
7375;SDS011;3728;42.266;24.944;2023-09-07T12:01:38;14.20;;;4.60;;
7375;SDS011;3728;42.266;24.944;2023-09-07T12:04:07;6.07;;;3.80;;
7375;SDS011;3728;42.266;24.944;2023-09-07T12:06:37;6.38;;;3.53;;
7375;SDS011;3728;42.266;24.944;2023-09-07T12:09:06;10.35;;;3.63;;
7375;SDS011;3728;42.266;24.944;2023-09-07T12:11:34;4.57;;;2.80;;
7375;SDS011;3728;42.266;24.944;2023-09-07T12:14:02;5.47;;;2.83;;
7375;SDS011;3728;42.266;24.944;2023-09-07T12:16:32;5.82;;;3.53;;
7375;SDS011;3728;42.266;24.944;2023-09-07T12:19:00;5.82;;;2.78;;
7375;SDS011;3728;42.266;24.944;2023-09-07T12:21:28;4.03;;;3.00;;
7375;SDS011;3728;42.266;24.944;2023-09-07T12:23:56;5.50;;;2.78;;
7375;SDS011;3728;42.266;24.944;2023-09-07T12:26:23;4.90;;;3.05;;
7375;SDS011;3728;42.266;24.944;2023-09-07T12:28:51;4.93;;;3.13;;
7375;SDS011;3728;42.266;24.944;2023-09-07T12:31:18;7.60;;;3.83;;
7375;SDS011;3728;42.266;24.944;2023-09-07T12:33:46;11.50;;;3.47;;
7375;SDS011;3728;42.266;24.944;2023-09-07T12:36:14;7.53;;;3.60;;
7375;SDS011;3728;42.266;24.944;2023-09-07T12:38:41;3.70;;;2.90;;
7375;SDS011;3728;42.266;24.944;2023-09-07T12:41:09;3.72;;;2.67;;
7375;SDS011;3728;42.266;24.944;2023-09-07T12:43:36;4.82;;;2.95;;
7375;SDS011;3728;42.266;24.944;2023-09-07T12:46:04;9.70;;;8.20;;
7375;SDS011;3728;42.266;24.944;2023-09-07T12:48:31;7.28;;;3.60;;
7375;SDS011;3728;42.266;24.944;2023-09-07T12:50:59;10.05;;;7.03;;
7375;SDS011;3728;42.266;24.944;2023-09-07T12:53:26;4.57;;;3.53;;
7375;SDS011;3728;42.266;24.944;2023-09-07T12:55:54;3.25;;;2.85;;
7375;SDS011;3728;42.266;24.944;2023-09-07T12:58:23;6.53;;;3.05;;
7375;SDS011;3728;42.266;24.944;2023-09-07T13:00:50;8.82;;;3.88;;
7375;SDS011;3728;42.266;24.944;2023-09-07T13:03:19;11.45;;;3.35;;
7375;SDS011;3728;42.266;24.944;2023-09-07T13:05:47;8.02;;;4.28;;
7375;SDS011;3728;42.266;24.944;2023-09-07T13:08:15;10.98;;;4.70;;
7375;SDS011;3728;42.266;24.944;2023-09-07T13:10:43;13.55;;;4.93;;
7375;SDS011;3728;42.266;24.944;2023-09-07T13:13:10;8.73;;;4.25;;
7375;SDS011;3728;42.266;24.944;2023-09-07T13:15:37;12.80;;;4.25;;
7375;SDS011;3728;42.266;24.944;2023-09-07T13:18:05;7.22;;;4.72;;
7375;SDS011;3728;42.266;24.944;2023-09-07T13:20:32;5.05;;;3.63;;
7375;SDS011;3728;42.266;24.944;2023-09-07T13:23:00;8.23;;;4.22;;
7375;SDS011;3728;42.266;24.944;2023-09-07T13:25:28;8.25;;;4.22;;
7375;SDS011;3728;42.266;24.944;2023-09-07T13:27:55;6.25;;;3.78;;
7375;SDS011;3728;42.266;24.944;2023-09-07T13:30:26;12.23;;;4.78;;
7375;SDS011;3728;42.266;24.944;2023-09-07T13:32:54;10.80;;;8.32;;
7375;SDS011;3728;42.266;24.944;2023-09-07T13:35:21;12.10;;;5.95;;
7375;SDS011;3728;42.266;24.944;2023-09-07T13:37:50;5.95;;;4.03;;
7375;SDS011;3728;42.266;24.944;2023-09-07T13:40:17;4.75;;;3.58;;
7375;SDS011;3728;42.266;24.944;2023-09-07T13:42:49;9.85;;;5.72;;
7375;SDS011;3728;42.266;24.944;2023-09-07T13:45:16;12.85;;;6.75;;
7375;SDS011;3728;42.266;24.944;2023-09-07T13:47:44;8.15;;;4.15;;
7375;SDS011;3728;42.266;24.944;2023-09-07T13:50:12;35.55;;;31.77;;
7375;SDS011;3728;42.266;24.944;2023-09-07T13:52:39;12.10;;;4.47;;
7375;SDS011;3728;42.266;24.944;2023-09-07T13:55:07;6.97;;;3.97;;
7375;SDS011;3728;42.266;24.944;2023-09-07T13:57:35;5.45;;;3.97;;
7375;SDS011;3728;42.266;24.944;2023-09-07T14:00:02;9.05;;;3.97;;
7375;SDS011;3728;42.266;24.944;2023-09-07T14:02:33;8.50;;;3.63;;
7375;SDS011;3728;42.266;24.944;2023-09-07T14:05:00;7.30;;;4.05;;
7375;SDS011;3728;42.266;24.944;2023-09-07T14:07:27;5.43;;;3.70;;
7375;SDS011;3728;42.266;24.944;2023-09-07T14:09:55;7.45;;;4.22;;
7375;SDS011;3728;42.266;24.944;2023-09-07T14:12:22;7.82;;;4.50;;
7375;SDS011;3728;42.266;24.944;2023-09-07T14:14:50;41.33;;;6.28;;
7375;SDS011;3728;42.266;24.944;2023-09-07T14:17:17;10.90;;;4.22;;
7375;SDS011;3728;42.266;24.944;2023-09-07T14:19:44;14.77;;;3.63;;
7375;SDS011;3728;42.266;24.944;2023-09-07T14:22:12;6.75;;;3.90;;
7375;SDS011;3728;42.266;24.944;2023-09-07T14:24:39;12.05;;;4.53;;
7375;SDS011;3728;42.266;24.944;2023-09-07T14:27:08;12.60;;;4.00;;
7375;SDS011;3728;42.266;24.944;2023-09-07T14:29:35;10.93;;;4.35;;
7375;SDS011;3728;42.266;24.944;2023-09-07T14:32:04;7.18;;;3.90;;
7375;SDS011;3728;42.266;24.944;2023-09-07T14:34:31;11.07;;;4.07;;
7375;SDS011;3728;42.266;24.944;2023-09-07T14:36:59;9.43;;;3.97;;
7375;SDS011;3728;42.266;24.944;2023-09-07T14:39:29;7.85;;;3.65;;
7375;SDS011;3728;42.266;24.944;2023-09-07T14:41:56;10.07;;;4.18;;
7375;SDS011;3728;42.266;24.944;2023-09-07T14:44:24;9.75;;;3.80;;
7375;SDS011;3728;42.266;24.944;2023-09-07T14:46:52;13.15;;;4.18;;
7375;SDS011;3728;42.266;24.944;2023-09-07T14:49:20;12.57;;;4.45;;
7375;SDS011;3728;42.266;24.944;2023-09-07T14:51:51;11.95;;;4.20;;
7375;SDS011;3728;42.266;24.944;2023-09-07T14:54:20;36.45;;;5.78;;
7375;SDS011;3728;42.266;24.944;2023-09-07T14:56:48;7.20;;;4.07;;
7375;SDS011;3728;42.266;24.944;2023-09-07T14:59:17;7.68;;;3.95;;
7375;SDS011;3728;42.266;24.944;2023-09-07T15:01:45;7.10;;;3.85;;
7375;SDS011;3728;42.266;24.944;2023-09-07T15:04:29;10.25;;;4.38;;